Gulf Bridge — A8JM5 — position and weather

sailwx.info

Track history (hours):
 
Tides and Currents Weather Stations Pressure Air Temp Water Temp Dewpoint Dewpoint Depression Visibility Wind Speed Wind Dir Waves Ship Positions

Gulf Bridge

Last reported at 2016-Aug-25 18:25 UTC. Time now 2016-Aug-30 20:48 UTC.
Position N 29°44' E 122°53'.

Length 213 m; beam 32.2 m; draft 11.5 m.

Type: Cargo ship. MMSI: 636017628.

Date/timePositionNaut miles runAvg speedWind from/ knotsBaromVisibWave heightAir tempDewpointWater temp
2016-Aug-25 18:25N 29°44' E 122°53'30612.7
2016-Aug-24 18:24N 25°11' E 120°15'1211.9
2016-Aug-24 17:25N 25°04' E 120°05'1312.3
2016-Aug-24 16:24N 24°56' E 119°54'1112.6
2016-Aug-24 15:33N 24°50' E 119°44'1313.1
2016-Aug-24 14:32N 24°45' E 119°31'1712.5
2016-Aug-24 13:09N 24°33' E 119°17'813.1
2016-Aug-24 12:33N 24°27' E 119°11'1413.3
2016-Aug-24 11:32N 24°19' E 118°60'1312.7
2016-Aug-24 10:31N 24°10' E 118°49'1212.6
2016-Aug-24 09:33N 24°04' E 118°38'1312.6
2016-Aug-24 08:32N 23°56' E 118°26'1212.4
2016-Aug-24 07:33N 23°47' E 118°17'1412.3
2016-Aug-24 06:24N 23°39' E 118°05'  
2016-Aug-19 14:34N 01°15' E 104°01'5 5.3
2016-Aug-19 13:33N 01°17' E 103°56'0 0.1
2016-Aug-19 12:33N 01°17' E 103°56'0 0.0
2016-Aug-19 11:33N 01°17' E 103°56'0 0.1
2016-Aug-19 10:30N 01°17' E 103°56'0 0.1
2016-Aug-19 09:18N 01°17' E 103°56'0 0.0
2016-Aug-19 08:33N 01°17' E 103°56'0 0.1
2016-Aug-19 07:33N 01°17' E 103°56'0 0.0
2016-Aug-19 06:33N 01°17' E 103°56'0 0.0
2016-Aug-19 05:30N 01°17' E 103°56'0 0.0
2016-Aug-19 04:24N 01°17' E 103°56'0 0.1
2016-Aug-19 03:33N 01°17' E 103°56'0 0.0
2016-Aug-19 02:18N 01°17' E 103°56'0 0.1
2016-Aug-19 01:33N 01°17' E 103°56'0 0.0
2016-Aug-19 00:30N 01°17' E 103°56'0 0.1
2016-Aug-18 23:27N 01°17' E 103°56'0 0.1
2016-Aug-18 22:30N 01°17' E 103°56'0 0.0
2016-Aug-18 21:30N 01°17' E 103°56'0 0.1
2016-Aug-18 20:18N 01°17' E 103°56'0 0.1
2016-Aug-18 19:21N 01°17' E 103°56'0 0.1
2016-Aug-18 18:33N 01°17' E 103°56'0 0.0
2016-Aug-18 17:33N 01°17' E 103°56'0 0.0
2016-Aug-18 16:33N 01°17' E 103°56'0 0.1
2016-Aug-18 15:27N 01°17' E 103°56'0 0.1
2016-Aug-18 14:30N 01°17' E 103°56'0 0.0
2016-Aug-18 13:33N 01°17' E 103°56'2 2.5
2016-Aug-18 12:33N 01°15' E 103°57'5 4.9
2016-Aug-18 11:33N 01°12' E 103°53'8 8.0
2016-Aug-18 10:33N 01°08' E 103°46'9 9.0
2016-Aug-18 09:33N 01°03' E 103°39'9 7.6
2016-Aug-18 08:23N 01°11' E 103°34'7 8.7
2016-Aug-18 07:33N 01°10' E 103°41'1 0.2
2016-Aug-18 04:26N 01°11' E 103°42'0 0.1
2016-Aug-18 03:32N 01°11' E 103°42'1 0.8
2016-Aug-18 02:34N 01°11' E 103°41'6 6.2
2016-Aug-18 01:33N 01°15' E 103°36'0 0.3
2016-Aug-18 00:21N 01°15' E 103°36'0 0.0
2016-Aug-17 23:27N 01°15' E 103°36'0 0.0
2016-Aug-17 21:15N 01°15' E 103°36'0 0.0
2016-Aug-17 20:15N 01°15' E 103°36'0 0.0
2016-Aug-17 19:15N 01°15' E 103°36'0 0.0
2016-Aug-17 18:27N 01°15' E 103°36'0 0.0
2016-Aug-17 17:27N 01°15' E 103°36'0 0.0
2016-Aug-17 16:30N 01°15' E 103°36'0 0.0
2016-Aug-17 14:12N 01°15' E 103°36'0 0.0
2016-Aug-17 13:30N 01°15' E 103°36'0 0.0
2016-Aug-17 12:24N 01°15' E 103°36'0 0.0
2016-Aug-17 11:30N 01°15' E 103°36'0 0.0
2016-Aug-17 10:15N 01°15' E 103°36'0 0.0
2016-Aug-17 09:24N 01°15' E 103°36'0 0.0
2016-Aug-17 07:33N 01°15' E 103°36'0 0.0
2016-Aug-17 06:30N 01°15' E 103°36'0 0.0
2016-Aug-17 05:33N 01°15' E 103°36'0 0.0
2016-Aug-17 04:30N 01°15' E 103°36'0 0.0
2016-Aug-17 03:33N 01°15' E 103°36'0 0.0
2016-Aug-17 02:33N 01°15' E 103°36'0 0.0
2016-Aug-16 14:09N 01°15' E 103°36'0 0.0
2016-Aug-16 13:33N 01°15' E 103°36'0 0.0
2016-Aug-16 11:21N 01°15' E 103°36'0 0.0
2016-Aug-16 10:33N 01°15' E 103°36'0 0.0
2016-Aug-16 08:30N 01°15' E 103°36'0 0.0
2016-Aug-16 07:12N 01°15' E 103°36'0 0.0
2016-Aug-16 01:33N 01°15' E 103°36'  
Track history (hours):
 
Tides and Currents Weather Stations Pressure Air Temp Water Temp Dewpoint Dewpoint Depression Visibility Wind Speed Wind Dir Waves Ship Positions

Gulf Bridge

Last reported at 2016-Aug-25 18:25 UTC. Time now 2016-Aug-30 20:48 UTC.
Position N 29°44' E 122°53'.

Length 213 m; beam 32.2 m; draft 11.5 m.

Type: Cargo ship. MMSI: 636017628.

Date/timePositionNaut miles runAvg speedWind from/ knotsBaromVisibWave heightAir tempDewpointWater temp
2016-Aug-25 18:25N 29°44' E 122°53'30612.7
2016-Aug-24 18:24N 25°11' E 120°15'1211.9
2016-Aug-24 17:25N 25°04' E 120°05'1312.3
2016-Aug-24 16:24N 24°56' E 119°54'1112.6
2016-Aug-24 15:33N 24°50' E 119°44'1313.1
2016-Aug-24 14:32N 24°45' E 119°31'1712.5
2016-Aug-24 13:09N 24°33' E 119°17'813.1
2016-Aug-24 12:33N 24°27' E 119°11'1413.3
2016-Aug-24 11:32N 24°19' E 118°60'1312.7
2016-Aug-24 10:31N 24°10' E 118°49'1212.6
2016-Aug-24 09:33N 24°04' E 118°38'1312.6
2016-Aug-24 08:32N 23°56' E 118°26'1212.4
2016-Aug-24 07:33N 23°47' E 118°17'1412.3
2016-Aug-24 06:24N 23°39' E 118°05'  
2016-Aug-19 14:34N 01°15' E 104°01'5 5.3
2016-Aug-19 13:33N 01°17' E 103°56'0 0.1
2016-Aug-19 12:33N 01°17' E 103°56'0 0.0
2016-Aug-19 11:33N 01°17' E 103°56'0 0.1
2016-Aug-19 10:30N 01°17' E 103°56'0 0.1
2016-Aug-19 09:18N 01°17' E 103°56'0 0.0
2016-Aug-19 08:33N 01°17' E 103°56'0 0.1
2016-Aug-19 07:33N 01°17' E 103°56'0 0.0
2016-Aug-19 06:33N 01°17' E 103°56'0 0.0
2016-Aug-19 05:30N 01°17' E 103°56'0 0.0
2016-Aug-19 04:24N 01°17' E 103°56'0 0.1
2016-Aug-19 03:33N 01°17' E 103°56'0 0.0
2016-Aug-19 02:18N 01°17' E 103°56'0 0.1
2016-Aug-19 01:33N 01°17' E 103°56'0 0.0
2016-Aug-19 00:30N 01°17' E 103°56'0 0.1
2016-Aug-18 23:27N 01°17' E 103°56'0 0.1
2016-Aug-18 22:30N 01°17' E 103°56'0 0.0
2016-Aug-18 21:30N 01°17' E 103°56'0 0.1
2016-Aug-18 20:18N 01°17' E 103°56'0 0.1
2016-Aug-18 19:21N 01°17' E 103°56'0 0.1
2016-Aug-18 18:33N 01°17' E 103°56'0 0.0
2016-Aug-18 17:33N 01°17' E 103°56'0 0.0
2016-Aug-18 16:33N 01°17' E 103°56'0 0.1
2016-Aug-18 15:27N 01°17' E 103°56'0 0.1
2016-Aug-18 14:30N 01°17' E 103°56'0 0.0
2016-Aug-18 13:33N 01°17' E 103°56'2 2.5
2016-Aug-18 12:33N 01°15' E 103°57'5 4.9
2016-Aug-18 11:33N 01°12' E 103°53'8 8.0
2016-Aug-18 10:33N 01°08' E 103°46'9 9.0
2016-Aug-18 09:33N 01°03' E 103°39'9 7.6
2016-Aug-18 08:23N 01°11' E 103°34'7 8.7
2016-Aug-18 07:33N 01°10' E 103°41'1 0.2
2016-Aug-18 04:26N 01°11' E 103°42'0 0.1
2016-Aug-18 03:32N 01°11' E 103°42'1 0.8
2016-Aug-18 02:34N 01°11' E 103°41'6 6.2
2016-Aug-18 01:33N 01°15' E 103°36'0 0.3
2016-Aug-18 00:21N 01°15' E 103°36'0 0.0
2016-Aug-17 23:27N 01°15' E 103°36'0 0.0
2016-Aug-17 21:15N 01°15' E 103°36'0 0.0
2016-Aug-17 20:15N 01°15' E 103°36'0 0.0
2016-Aug-17 19:15N 01°15' E 103°36'0 0.0
2016-Aug-17 18:27N 01°15' E 103°36'0 0.0
2016-Aug-17 17:27N 01°15' E 103°36'0 0.0
2016-Aug-17 16:30N 01°15' E 103°36'0 0.0
2016-Aug-17 14:12N 01°15' E 103°36'0 0.0
2016-Aug-17 13:30N 01°15' E 103°36'0 0.0
2016-Aug-17 12:24N 01°15' E 103°36'0 0.0
2016-Aug-17 11:30N 01°15' E 103°36'0 0.0
2016-Aug-17 10:15N 01°15' E 103°36'0 0.0
2016-Aug-17 09:24N 01°15' E 103°36'0 0.0
2016-Aug-17 07:33N 01°15' E 103°36'0 0.0
2016-Aug-17 06:30N 01°15' E 103°36'0 0.0
2016-Aug-17 05:33N 01°15' E 103°36'0 0.0
2016-Aug-17 04:30N 01°15' E 103°36'0 0.0
2016-Aug-17 03:33N 01°15' E 103°36'0 0.0
2016-Aug-17 02:33N 01°15' E 103°36'0 0.0
2016-Aug-16 14:09N 01°15' E 103°36'0 0.0
2016-Aug-16 13:33N 01°15' E 103°36'0 0.0
2016-Aug-16 11:21N 01°15' E 103°36'0 0.0
2016-Aug-16 10:33N 01°15' E 103°36'0 0.0
2016-Aug-16 08:30N 01°15' E 103°36'0 0.0
2016-Aug-16 07:12N 01°15' E 103°36'0 0.0
2016-Aug-16 01:33N 01°15' E 103°36'  

Dump ship's entire track history